sensor_id;sensor_type;location;lat;lon;timestamp;temperature;humidity
13482;DHT22;6813;60.352;15.746;2023-06-14T00:01:20;21.30;67.90
13482;DHT22;6813;60.352;15.746;2023-06-14T00:03:47;21.30;67.70
13482;DHT22;6813;60.352;15.746;2023-06-14T00:06:14;21.40;68.60
13482;DHT22;6813;60.352;15.746;2023-06-14T00:08:40;21.40;68.00
13482;DHT22;6813;60.352;15.746;2023-06-14T00:11:06;21.40;67.60
13482;DHT22;6813;60.352;15.746;2023-06-14T00:13:32;21.40;67.40
13482;DHT22;6813;60.352;15.746;2023-06-14T00:15:58;21.40;67.10
13482;DHT22;6813;60.352;15.746;2023-06-14T00:18:24;21.40;66.10
13482;DHT22;6813;60.352;15.746;2023-06-14T00:20:52;21.30;66.40
13482;DHT22;6813;60.352;15.746;2023-06-14T00:23:18;21.10;68.10
13482;DHT22;6813;60.352;15.746;2023-06-14T00:25:44;21.00;68.60
13482;DHT22;6813;60.352;15.746;2023-06-14T00:28:09;20.80;68.50
13482;DHT22;6813;60.352;15.746;2023-06-14T00:30:35;20.80;68.90
13482;DHT22;6813;60.352;15.746;2023-06-14T00:33:01;20.70;70.00
13482;DHT22;6813;60.352;15.746;2023-06-14T00:35:27;20.80;69.10
13482;DHT22;6813;60.352;15.746;2023-06-14T00:37:53;20.80;68.80
13482;DHT22;6813;60.352;15.746;2023-06-14T00:40:20;20.80;69.10
13482;DHT22;6813;60.352;15.746;2023-06-14T00:42:47;20.70;69.20
13482;DHT22;6813;60.352;15.746;2023-06-14T00:45:13;20.70;70.10
13482;DHT22;6813;60.352;15.746;2023-06-14T00:47:40;20.60;70.30
13482;DHT22;6813;60.352;15.746;2023-06-14T00:50:07;20.50;71.00
13482;DHT22;6813;60.352;15.746;2023-06-14T00:52:33;20.50;70.80
13482;DHT22;6813;60.352;15.746;2023-06-14T00:55:00;20.40;71.60
13482;DHT22;6813;60.352;15.746;2023-06-14T00:57:27;20.40;71.40
13482;DHT22;6813;60.352;15.746;2023-06-14T00:59:52;20.40;71.80
13482;DHT22;6813;60.352;15.746;2023-06-14T01:02:19;20.40;71.90
13482;DHT22;6813;60.352;15.746;2023-06-14T01:04:48;20.30;72.20
13482;DHT22;6813;60.352;15.746;2023-06-14T01:07:37;20.20;72.10
13482;DHT22;6813;60.352;15.746;2023-06-14T01:13:27;20.00;73.40
13482;DHT22;6813;60.352;15.746;2023-06-14T01:15:55;19.90;73.60
13482;DHT22;6813;60.352;15.746;2023-06-14T01:18:21;19.90;74.10
13482;DHT22;6813;60.352;15.746;2023-06-14T01:20:49;19.80;74.30
13482;DHT22;6813;60.352;15.746;2023-06-14T01:23:19;19.70;74.80
13482;DHT22;6813;60.352;15.746;2023-06-14T01:25:46;19.70;74.40
13482;DHT22;6813;60.352;15.746;2023-06-14T01:28:13;19.70;74.40
13482;DHT22;6813;60.352;15.746;2023-06-14T01:30:44;19.70;74.00
13482;DHT22;6813;60.352;15.746;2023-06-14T01:33:20;19.70;73.60
13482;DHT22;6813;60.352;15.746;2023-06-14T01:35:47;19.80;73.40
13482;DHT22;6813;60.352;15.746;2023-06-14T01:38:14;19.80;73.50
13482;DHT22;6813;60.352;15.746;2023-06-14T01:40:42;19.80;73.70
13482;DHT22;6813;60.352;15.746;2023-06-14T01:43:11;19.80;73.30
13482;DHT22;6813;60.352;15.746;2023-06-14T01:45:40;19.80;73.20
13482;DHT22;6813;60.352;15.746;2023-06-14T01:48:06;19.80;73.30
13482;DHT22;6813;60.352;15.746;2023-06-14T01:50:32;19.70;74.60
13482;DHT22;6813;60.352;15.746;2023-06-14T01:52:58;19.70;73.30
13482;DHT22;6813;60.352;15.746;2023-06-14T01:55:23;19.70;73.10
13482;DHT22;6813;60.352;15.746;2023-06-14T01:57:51;19.70;73.70
13482;DHT22;6813;60.352;15.746;2023-06-14T02:00:17;19.60;74.60
13482;DHT22;6813;60.352;15.746;2023-06-14T02:02:43;19.40;75.40
13482;DHT22;6813;60.352;15.746;2023-06-14T02:05:09;19.40;75.60
13482;DHT22;6813;60.352;15.746;2023-06-14T02:07:36;19.20;76.40
13482;DHT22;6813;60.352;15.746;2023-06-14T02:10:03;19.20;76.10
13482;DHT22;6813;60.352;15.746;2023-06-14T02:12:28;19.20;76.00
13482;DHT22;6813;60.352;15.746;2023-06-14T02:14:54;19.20;76.20
13482;DHT22;6813;60.352;15.746;2023-06-14T02:17:20;19.10;77.00
13482;DHT22;6813;60.352;15.746;2023-06-14T02:19:45;19.10;77.00
13482;DHT22;6813;60.352;15.746;2023-06-14T02:22:11;19.00;76.90
13482;DHT22;6813;60.352;15.746;2023-06-14T02:24:37;19.00;77.50
13482;DHT22;6813;60.352;15.746;2023-06-14T02:27:03;19.00;77.10
13482;DHT22;6813;60.352;15.746;2023-06-14T02:29:29;19.00;77.50
13482;DHT22;6813;60.352;15.746;2023-06-14T02:31:55;19.00;77.20
13482;DHT22;6813;60.352;15.746;2023-06-14T02:34:20;19.00;77.90
13482;DHT22;6813;60.352;15.746;2023-06-14T02:36:47;19.00;77.70
13482;DHT22;6813;60.352;15.746;2023-06-14T02:39:13;19.00;77.90
13482;DHT22;6813;60.352;15.746;2023-06-14T02:41:39;18.90;77.90
13482;DHT22;6813;60.352;15.746;2023-06-14T02:44:06;18.90;78.40
13482;DHT22;6813;60.352;15.746;2023-06-14T02:46:32;18.90;78.40
13482;DHT22;6813;60.352;15.746;2023-06-14T02:48:57;18.80;78.60
13482;DHT22;6813;60.352;15.746;2023-06-14T02:51:23;18.80;79.40
13482;DHT22;6813;60.352;15.746;2023-06-14T02:53:49;18.80;78.90
13482;DHT22;6813;60.352;15.746;2023-06-14T02:56:14;19.00;77.90
13482;DHT22;6813;60.352;15.746;2023-06-14T02:58:43;19.00;79.30
13482;DHT22;6813;60.352;15.746;2023-06-14T03:01:08;18.80;81.40
13482;DHT22;6813;60.352;15.746;2023-06-14T03:03:38;18.70;82.30
13482;DHT22;6813;60.352;15.746;2023-06-14T03:06:04;18.70;82.00
13482;DHT22;6813;60.352;15.746;2023-06-14T03:08:33;18.90;81.00
13482;DHT22;6813;60.352;15.746;2023-06-14T03:11:04;19.10;79.50
13482;DHT22;6813;60.352;15.746;2023-06-14T03:13:34;19.20;79.70
13482;DHT22;6813;60.352;15.746;2023-06-14T03:16:00;19.30;79.80
13482;DHT22;6813;60.352;15.746;2023-06-14T03:18:31;19.30;79.20
13482;DHT22;6813;60.352;15.746;2023-06-14T03:21:01;19.30;79.90
13482;DHT22;6813;60.352;15.746;2023-06-14T03:23:27;19.30;79.20
13482;DHT22;6813;60.352;15.746;2023-06-14T03:25:53;19.40;80.20
13482;DHT22;6813;60.352;15.746;2023-06-14T03:28:18;19.50;81.50
13482;DHT22;6813;60.352;15.746;2023-06-14T03:30:45;19.40;80.00
13482;DHT22;6813;60.352;15.746;2023-06-14T03:33:11;19.40;80.60
13482;DHT22;6813;60.352;15.746;2023-06-14T03:35:36;19.50;79.90
13482;DHT22;6813;60.352;15.746;2023-06-14T03:38:02;19.60;79.20
13482;DHT22;6813;60.352;15.746;2023-06-14T03:40:29;19.80;79.10
13482;DHT22;6813;60.352;15.746;2023-06-14T03:42:55;19.80;79.20
13482;DHT22;6813;60.352;15.746;2023-06-14T03:45:21;19.80;79.40
13482;DHT22;6813;60.352;15.746;2023-06-14T03:47:47;19.90;79.10
13482;DHT22;6813;60.352;15.746;2023-06-14T03:50:13;19.80;80.20
13482;DHT22;6813;60.352;15.746;2023-06-14T03:52:39;19.70;80.20
13482;DHT22;6813;60.352;15.746;2023-06-14T03:55:08;19.70;80.70
13482;DHT22;6813;60.352;15.746;2023-06-14T03:57:34;19.70;81.20
13482;DHT22;6813;60.352;15.746;2023-06-14T03:59:59;19.80;81.20
13482;DHT22;6813;60.352;15.746;2023-06-14T04:02:25;19.80;81.10
13482;DHT22;6813;60.352;15.746;2023-06-14T04:04:52;20.00;80.90
13482;DHT22;6813;60.352;15.746;2023-06-14T04:07:19;20.10;80.50
13482;DHT22;6813;60.352;15.746;2023-06-14T04:09:46;20.40;79.90
13482;DHT22;6813;60.352;15.746;2023-06-14T04:12:11;20.60;79.20
13482;DHT22;6813;60.352;15.746;2023-06-14T04:14:38;20.80;79.40
13482;DHT22;6813;60.352;15.746;2023-06-14T04:17:05;21.10;79.00
13482;DHT22;6813;60.352;15.746;2023-06-14T04:19:30;21.30;78.20
13482;DHT22;6813;60.352;15.746;2023-06-14T04:21:56;21.60;77.60
13482;DHT22;6813;60.352;15.746;2023-06-14T04:24:22;21.90;77.10
13482;DHT22;6813;60.352;15.746;2023-06-14T04:26:49;22.00;76.20
13482;DHT22;6813;60.352;15.746;2023-06-14T04:29:15;22.30;74.40
13482;DHT22;6813;60.352;15.746;2023-06-14T04:31:45;22.50;72.20
13482;DHT22;6813;60.352;15.746;2023-06-14T04:34:11;22.70;72.20
13482;DHT22;6813;60.352;15.746;2023-06-14T04:36:42;22.90;72.40
13482;DHT22;6813;60.352;15.746;2023-06-14T04:39:17;22.90;72.40
13482;DHT22;6813;60.352;15.746;2023-06-14T04:41:44;23.00;71.90
13482;DHT22;6813;60.352;15.746;2023-06-14T04:44:10;23.10;71.70
13482;DHT22;6813;60.352;15.746;2023-06-14T04:46:36;23.20;71.20
13482;DHT22;6813;60.352;15.746;2023-06-14T04:49:21;23.40;71.20
13482;DHT22;6813;60.352;15.746;2023-06-14T04:51:49;23.70;70.50
13482;DHT22;6813;60.352;15.746;2023-06-14T04:54:23;23.90;69.50
13482;DHT22;6813;60.352;15.746;2023-06-14T04:56:50;24.20;68.50
13482;DHT22;6813;60.352;15.746;2023-06-14T04:59:16;24.40;68.90
13482;DHT22;6813;60.352;15.746;2023-06-14T05:01:43;24.60;68.40
13482;DHT22;6813;60.352;15.746;2023-06-14T05:04:15;24.80;67.20
13482;DHT22;6813;60.352;15.746;2023-06-14T05:06:45;25.00;64.30
13482;DHT22;6813;60.352;15.746;2023-06-14T05:09:14;25.10;64.50
13482;DHT22;6813;60.352;15.746;2023-06-14T05:11:40;25.20;63.60
13482;DHT22;6813;60.352;15.746;2023-06-14T05:14:13;25.40;63.30
13482;DHT22;6813;60.352;15.746;2023-06-14T05:16:39;25.50;63.70
13482;DHT22;6813;60.352;15.746;2023-06-14T05:19:05;25.70;61.50
13482;DHT22;6813;60.352;15.746;2023-06-14T05:21:31;25.80;61.80
13482;DHT22;6813;60.352;15.746;2023-06-14T05:24:00;26.00;61.60
13482;DHT22;6813;60.352;15.746;2023-06-14T05:26:26;26.00;62.10
13482;DHT22;6813;60.352;15.746;2023-06-14T05:28:56;26.20;60.80
13482;DHT22;6813;60.352;15.746;2023-06-14T05:31:25;26.30;60.80
13482;DHT22;6813;60.352;15.746;2023-06-14T05:33:51;26.50;59.20
13482;DHT22;6813;60.352;15.746;2023-06-14T05:36:17;26.60;58.10
13482;DHT22;6813;60.352;15.746;2023-06-14T05:38:43;26.80;58.70
13482;DHT22;6813;60.352;15.746;2023-06-14T05:41:09;26.90;58.70
13482;DHT22;6813;60.352;15.746;2023-06-14T05:43:35;27.00;58.80
13482;DHT22;6813;60.352;15.746;2023-06-14T05:46:00;27.00;59.60
13482;DHT22;6813;60.352;15.746;2023-06-14T05:48:26;27.20;60.30
13482;DHT22;6813;60.352;15.746;2023-06-14T05:50:52;27.30;60.00
13482;DHT22;6813;60.352;15.746;2023-06-14T05:53:17;27.50;60.00
13482;DHT22;6813;60.352;15.746;2023-06-14T05:55:43;27.70;60.10
13482;DHT22;6813;60.352;15.746;2023-06-14T05:58:09;27.80;59.50
13482;DHT22;6813;60.352;15.746;2023-06-14T06:00:36;27.90;59.40
13482;DHT22;6813;60.352;15.746;2023-06-14T06:03:02;28.10;59.50
13482;DHT22;6813;60.352;15.746;2023-06-14T06:05:28;28.20;59.40
13482;DHT22;6813;60.352;15.746;2023-06-14T06:07:53;28.30;58.70
13482;DHT22;6813;60.352;15.746;2023-06-14T06:10:19;28.40;57.50
13482;DHT22;6813;60.352;15.746;2023-06-14T06:12:45;28.60;56.80
13482;DHT22;6813;60.352;15.746;2023-06-14T06:15:12;28.70;56.60
13482;DHT22;6813;60.352;15.746;2023-06-14T06:17:38;28.70;56.40
13482;DHT22;6813;60.352;15.746;2023-06-14T06:20:05;28.80;56.30
13482;DHT22;6813;60.352;15.746;2023-06-14T06:22:36;28.90;55.90
13482;DHT22;6813;60.352;15.746;2023-06-14T06:25:01;28.90;55.70
13482;DHT22;6813;60.352;15.746;2023-06-14T06:27:28;29.10;55.50
13482;DHT22;6813;60.352;15.746;2023-06-14T06:29:53;29.30;54.70
13482;DHT22;6813;60.352;15.746;2023-06-14T06:32:19;29.40;54.40
13482;DHT22;6813;60.352;15.746;2023-06-14T06:34:45;29.40;55.10
13482;DHT22;6813;60.352;15.746;2023-06-14T06:37:11;29.50;54.70
13482;DHT22;6813;60.352;15.746;2023-06-14T06:39:37;29.50;54.70
13482;DHT22;6813;60.352;15.746;2023-06-14T06:42:03;29.60;53.80
13482;DHT22;6813;60.352;15.746;2023-06-14T06:44:29;29.80;54.40
13482;DHT22;6813;60.352;15.746;2023-06-14T06:46:54;30.00;52.40
13482;DHT22;6813;60.352;15.746;2023-06-14T06:49:20;29.80;51.30
13482;DHT22;6813;60.352;15.746;2023-06-14T06:52:03;30.00;51.20
13482;DHT22;6813;60.352;15.746;2023-06-14T06:54:29;30.10;51.10
13482;DHT22;6813;60.352;15.746;2023-06-14T06:56:55;30.20;49.60
13482;DHT22;6813;60.352;15.746;2023-06-14T06:59:21;30.30;50.30
13482;DHT22;6813;60.352;15.746;2023-06-14T07:01:47;30.30;50.70
13482;DHT22;6813;60.352;15.746;2023-06-14T07:04:13;30.60;49.90
13482;DHT22;6813;60.352;15.746;2023-06-14T07:06:39;30.70;48.70
13482;DHT22;6813;60.352;15.746;2023-06-14T07:09:05;30.70;49.30
13482;DHT22;6813;60.352;15.746;2023-06-14T07:11:33;31.00;49.60
13482;DHT22;6813;60.352;15.746;2023-06-14T07:13:59;31.20;48.60
13482;DHT22;6813;60.352;15.746;2023-06-14T07:16:25;31.40;48.90
13482;DHT22;6813;60.352;15.746;2023-06-14T07:18:51;31.50;48.00
13482;DHT22;6813;60.352;15.746;2023-06-14T07:21:18;31.60;48.90
13482;DHT22;6813;60.352;15.746;2023-06-14T07:23:43;31.80;48.40
13482;DHT22;6813;60.352;15.746;2023-06-14T07:26:09;31.90;48.30
13482;DHT22;6813;60.352;15.746;2023-06-14T07:28:35;31.90;47.40
13482;DHT22;6813;60.352;15.746;2023-06-14T07:31:01;31.90;47.80
13482;DHT22;6813;60.352;15.746;2023-06-14T07:33:27;31.90;48.10
13482;DHT22;6813;60.352;15.746;2023-06-14T07:35:52;31.90;47.80
13482;DHT22;6813;60.352;15.746;2023-06-14T07:38:18;32.00;48.20
13482;DHT22;6813;60.352;15.746;2023-06-14T07:40:44;32.20;47.00
13482;DHT22;6813;60.352;15.746;2023-06-14T07:43:10;32.30;47.00
13482;DHT22;6813;60.352;15.746;2023-06-14T07:45:36;32.40;46.80
13482;DHT22;6813;60.352;15.746;2023-06-14T07:48:02;32.60;46.60
13482;DHT22;6813;60.352;15.746;2023-06-14T07:50:28;32.60;46.50
13482;DHT22;6813;60.352;15.746;2023-06-14T07:52:54;32.60;46.40
13482;DHT22;6813;60.352;15.746;2023-06-14T07:55:20;32.50;47.00
13482;DHT22;6813;60.352;15.746;2023-06-14T07:57:46;32.70;46.90
13482;DHT22;6813;60.352;15.746;2023-06-14T08:00:12;32.90;46.30
13482;DHT22;6813;60.352;15.746;2023-06-14T08:02:41;32.90;46.30
13482;DHT22;6813;60.352;15.746;2023-06-14T08:05:09;33.20;45.80
13482;DHT22;6813;60.352;15.746;2023-06-14T08:07:35;33.20;45.50
13482;DHT22;6813;60.352;15.746;2023-06-14T08:10:01;33.20;45.50
13482;DHT22;6813;60.352;15.746;2023-06-14T08:12:27;33.30;45.50
13482;DHT22;6813;60.352;15.746;2023-06-14T08:14:52;33.30;44.90
13482;DHT22;6813;60.352;15.746;2023-06-14T08:17:18;33.10;45.30
13482;DHT22;6813;60.352;15.746;2023-06-14T08:19:44;33.20;45.50
13482;DHT22;6813;60.352;15.746;2023-06-14T08:22:09;33.40;44.90
13482;DHT22;6813;60.352;15.746;2023-06-14T08:24:37;33.30;44.50
13482;DHT22;6813;60.352;15.746;2023-06-14T08:27:03;33.40;44.70
13482;DHT22;6813;60.352;15.746;2023-06-14T08:29:29;33.40;44.10
13482;DHT22;6813;60.352;15.746;2023-06-14T08:31:56;33.10;44.70
13482;DHT22;6813;60.352;15.746;2023-06-14T08:34:22;33.20;44.10
13482;DHT22;6813;60.352;15.746;2023-06-14T08:36:50;33.20;45.20
13482;DHT22;6813;60.352;15.746;2023-06-14T08:39:16;33.40;44.50
13482;DHT22;6813;60.352;15.746;2023-06-14T08:41:44;33.40;44.50
13482;DHT22;6813;60.352;15.746;2023-06-14T08:44:11;33.60;44.10
13482;DHT22;6813;60.352;15.746;2023-06-14T08:46:37;33.80;44.10
13482;DHT22;6813;60.352;15.746;2023-06-14T08:49:04;33.50;46.20
13482;DHT22;6813;60.352;15.746;2023-06-14T08:51:32;33.70;44.50
13482;DHT22;6813;60.352;15.746;2023-06-14T08:54:02;33.70;43.60
13482;DHT22;6813;60.352;15.746;2023-06-14T08:56:30;33.70;44.10
13482;DHT22;6813;60.352;15.746;2023-06-14T08:58:57;33.70;43.30
13482;DHT22;6813;60.352;15.746;2023-06-14T09:01:23;33.70;44.10
13482;DHT22;6813;60.352;15.746;2023-06-14T09:03:50;33.80;44.30
13482;DHT22;6813;60.352;15.746;2023-06-14T09:06:16;34.00;43.00
13482;DHT22;6813;60.352;15.746;2023-06-14T09:08:45;34.10;43.10
13482;DHT22;6813;60.352;15.746;2023-06-14T09:11:12;34.00;42.70
13482;DHT22;6813;60.352;15.746;2023-06-14T09:13:39;33.10;42.70
13482;DHT22;6813;60.352;15.746;2023-06-14T09:16:05;31.80;43.90
13482;DHT22;6813;60.352;15.746;2023-06-14T09:18:42;30.70;46.10
13482;DHT22;6813;60.352;15.746;2023-06-14T09:21:14;30.60;47.70
13482;DHT22;6813;60.352;15.746;2023-06-14T09:23:42;30.30;47.90
13482;DHT22;6813;60.352;15.746;2023-06-14T09:26:12;30.50;48.30
13482;DHT22;6813;60.352;15.746;2023-06-14T09:28:46;30.50;48.10
13482;DHT22;6813;60.352;15.746;2023-06-14T09:31:17;30.70;48.10
13482;DHT22;6813;60.352;15.746;2023-06-14T09:33:43;30.60;46.60
13482;DHT22;6813;60.352;15.746;2023-06-14T09:36:25;30.30;46.90
13482;DHT22;6813;60.352;15.746;2023-06-14T09:38:56;30.60;47.30
13482;DHT22;6813;60.352;15.746;2023-06-14T09:41:36;31.10;47.60
13482;DHT22;6813;60.352;15.746;2023-06-14T09:44:04;31.60;46.70
13482;DHT22;6813;60.352;15.746;2023-06-14T09:46:30;31.80;45.90
13482;DHT22;6813;60.352;15.746;2023-06-14T09:48:57;31.90;45.10
13482;DHT22;6813;60.352;15.746;2023-06-14T09:51:23;31.90;45.60
13482;DHT22;6813;60.352;15.746;2023-06-14T09:53:50;31.70;45.20
13482;DHT22;6813;60.352;15.746;2023-06-14T09:56:23;31.60;45.40
13482;DHT22;6813;60.352;15.746;2023-06-14T09:58:55;31.40;45.80
13482;DHT22;6813;60.352;15.746;2023-06-14T10:01:22;31.20;46.10
13482;DHT22;6813;60.352;15.746;2023-06-14T10:03:50;30.90;46.80
13482;DHT22;6813;60.352;15.746;2023-06-14T10:06:21;30.70;46.20
13482;DHT22;6813;60.352;15.746;2023-06-14T10:08:52;30.40;46.50
13482;DHT22;6813;60.352;15.746;2023-06-14T10:11:17;30.10;46.50
13482;DHT22;6813;60.352;15.746;2023-06-14T10:13:43;29.90;46.10
13482;DHT22;6813;60.352;15.746;2023-06-14T10:16:15;29.90;46.20
13482;DHT22;6813;60.352;15.746;2023-06-14T10:18:49;29.90;45.50
13482;DHT22;6813;60.352;15.746;2023-06-14T10:21:41;29.70;46.40
13482;DHT22;6813;60.352;15.746;2023-06-14T10:24:13;29.40;46.80
13482;DHT22;6813;60.352;15.746;2023-06-14T10:26:52;29.10;46.90
13482;DHT22;6813;60.352;15.746;2023-06-14T10:29:17;29.40;49.50
13482;DHT22;6813;60.352;15.746;2023-06-14T10:31:50;29.60;45.80
13482;DHT22;6813;60.352;15.746;2023-06-14T10:34:28;29.90;44.60
13482;DHT22;6813;60.352;15.746;2023-06-14T10:37:05;30.10;44.60
13482;DHT22;6813;60.352;15.746;2023-06-14T10:39:33;30.50;42.90
13482;DHT22;6813;60.352;15.746;2023-06-14T10:42:01;31.00;44.10
13482;DHT22;6813;60.352;15.746;2023-06-14T10:46:57;31.50;43.70
13482;DHT22;6813;60.352;15.746;2023-06-14T10:49:44;31.00;43.20
13482;DHT22;6813;60.352;15.746;2023-06-14T10:52:12;30.40;44.90
13482;DHT22;6813;60.352;15.746;2023-06-14T10:55:01;30.00;44.20
13482;DHT22;6813;60.352;15.746;2023-06-14T10:57:30;29.20;43.50
13482;DHT22;6813;60.352;15.746;2023-06-14T10:59:58;29.00;45.00
13482;DHT22;6813;60.352;15.746;2023-06-14T11:05:28;29.50;46.80
13482;DHT22;6813;60.352;15.746;2023-06-14T11:10:42;30.20;46.40
13482;DHT22;6813;60.352;15.746;2023-06-14T11:13:08;30.50;43.80
13482;DHT22;6813;60.352;15.746;2023-06-14T11:15:37;30.00;43.50
13482;DHT22;6813;60.352;15.746;2023-06-14T11:18:06;29.60;44.70
13482;DHT22;6813;60.352;15.746;2023-06-14T11:20:34;29.40;46.80
13482;DHT22;6813;60.352;15.746;2023-06-14T11:23:01;29.50;44.70
13482;DHT22;6813;60.352;15.746;2023-06-14T11:25:27;29.50;45.10
13482;DHT22;6813;60.352;15.746;2023-06-14T11:27:57;29.60;45.20
13482;DHT22;6813;60.352;15.746;2023-06-14T11:30:24;29.90;44.80
13482;DHT22;6813;60.352;15.746;2023-06-14T11:32:54;29.90;45.50
13482;DHT22;6813;60.352;15.746;2023-06-14T11:35:23;30.20;45.70
13482;DHT22;6813;60.352;15.746;2023-06-14T11:37:52;30.40;45.60
13482;DHT22;6813;60.352;15.746;2023-06-14T11:40:18;30.60;44.20
13482;DHT22;6813;60.352;15.746;2023-06-14T11:42:44;30.60;43.80
13482;DHT22;6813;60.352;15.746;2023-06-14T11:45:11;30.20;43.50
13482;DHT22;6813;60.352;15.746;2023-06-14T11:47:38;29.70;44.00
13482;DHT22;6813;60.352;15.746;2023-06-14T11:50:06;29.40;44.60
13482;DHT22;6813;60.352;15.746;2023-06-14T11:52:32;29.30;45.60
13482;DHT22;6813;60.352;15.746;2023-06-14T11:54:58;29.20;44.90
13482;DHT22;6813;60.352;15.746;2023-06-14T11:57:25;29.20;46.10
13482;DHT22;6813;60.352;15.746;2023-06-14T11:59:51;29.30;46.10
13482;DHT22;6813;60.352;15.746;2023-06-14T12:02:18;29.60;45.40
13482;DHT22;6813;60.352;15.746;2023-06-14T12:04:47;29.40;45.20
13482;DHT22;6813;60.352;15.746;2023-06-14T12:07:17;29.30;45.10
13482;DHT22;6813;60.352;15.746;2023-06-14T12:12:24;29.60;45.80
13482;DHT22;6813;60.352;15.746;2023-06-14T12:14:55;29.80;45.10
13482;DHT22;6813;60.352;15.746;2023-06-14T12:17:22;29.90;45.50
13482;DHT22;6813;60.352;15.746;2023-06-14T12:19:49;30.20;45.40
13482;DHT22;6813;60.352;15.746;2023-06-14T12:22:16;30.30;45.60
13482;DHT22;6813;60.352;15.746;2023-06-14T12:24:45;30.20;46.50
13482;DHT22;6813;60.352;15.746;2023-06-14T12:27:12;30.30;46.40
13482;DHT22;6813;60.352;15.746;2023-06-14T12:29:41;30.50;46.20
13482;DHT22;6813;60.352;15.746;2023-06-14T12:32:09;30.70;46.00
13482;DHT22;6813;60.352;15.746;2023-06-14T12:34:35;30.70;45.60
13482;DHT22;6813;60.352;15.746;2023-06-14T12:37:01;30.70;45.60
13482;DHT22;6813;60.352;15.746;2023-06-14T12:39:29;30.70;46.00
13482;DHT22;6813;60.352;15.746;2023-06-14T12:41:57;30.70;46.60
13482;DHT22;6813;60.352;15.746;2023-06-14T12:44:23;30.70;46.50
13482;DHT22;6813;60.352;15.746;2023-06-14T12:46:49;30.70;46.50
13482;DHT22;6813;60.352;15.746;2023-06-14T12:49:17;30.70;45.50
13482;DHT22;6813;60.352;15.746;2023-06-14T12:51:43;30.60;45.40
13482;DHT22;6813;60.352;15.746;2023-06-14T12:54:08;30.60;44.70
13482;DHT22;6813;60.352;15.746;2023-06-14T12:56:34;30.60;45.00
13482;DHT22;6813;60.352;15.746;2023-06-14T12:59:00;30.60;44.40
13482;DHT22;6813;60.352;15.746;2023-06-14T13:01:26;30.50;46.60
13482;DHT22;6813;60.352;15.746;2023-06-14T13:03:52;30.00;44.20
13482;DHT22;6813;60.352;15.746;2023-06-14T13:06:22;29.60;45.30
13482;DHT22;6813;60.352;15.746;2023-06-14T13:08:48;29.30;45.30
13482;DHT22;6813;60.352;15.746;2023-06-14T13:11:14;29.00;46.70
13482;DHT22;6813;60.352;15.746;2023-06-14T13:13:40;28.90;46.70
13482;DHT22;6813;60.352;15.746;2023-06-14T13:16:06;28.90;46.60
13482;DHT22;6813;60.352;15.746;2023-06-14T13:18:31;28.80;48.50
13482;DHT22;6813;60.352;15.746;2023-06-14T13:20:57;28.90;48.90
13482;DHT22;6813;60.352;15.746;2023-06-14T13:23:23;28.90;47.50
13482;DHT22;6813;60.352;15.746;2023-06-14T13:25:49;28.80;46.80
13482;DHT22;6813;60.352;15.746;2023-06-14T13:28:17;28.70;46.70
13482;DHT22;6813;60.352;15.746;2023-06-14T13:30:43;28.60;48.60
13482;DHT22;6813;60.352;15.746;2023-06-14T13:33:09;28.50;47.10
13482;DHT22;6813;60.352;15.746;2023-06-14T13:35:35;28.50;48.30
13482;DHT22;6813;60.352;15.746;2023-06-14T13:38:01;28.50;47.50
13482;DHT22;6813;60.352;15.746;2023-06-14T13:40:26;28.70;46.80
13482;DHT22;6813;60.352;15.746;2023-06-14T13:42:52;29.00;46.10
13482;DHT22;6813;60.352;15.746;2023-06-14T13:45:18;29.10;45.00
13482;DHT22;6813;60.352;15.746;2023-06-14T13:47:44;29.20;44.50
13482;DHT22;6813;60.352;15.746;2023-06-14T13:50:10;29.20;45.60
13482;DHT22;6813;60.352;15.746;2023-06-14T13:52:35;29.30;45.70
13482;DHT22;6813;60.352;15.746;2023-06-14T13:55:02;29.30;46.00
13482;DHT22;6813;60.352;15.746;2023-06-14T13:57:27;29.20;47.80
13482;DHT22;6813;60.352;15.746;2023-06-14T13:59:53;29.20;45.10
13482;DHT22;6813;60.352;15.746;2023-06-14T14:02:21;28.90;45.30
13482;DHT22;6813;60.352;15.746;2023-06-14T14:04:47;28.90;46.20
13482;DHT22;6813;60.352;15.746;2023-06-14T14:07:18;28.90;46.00
13482;DHT22;6813;60.352;15.746;2023-06-14T14:09:44;28.70;45.30
13482;DHT22;6813;60.352;15.746;2023-06-14T14:12:10;28.70;45.50
13482;DHT22;6813;60.352;15.746;2023-06-14T14:14:36;28.40;46.20
13482;DHT22;6813;60.352;15.746;2023-06-14T14:17:02;28.20;46.90
13482;DHT22;6813;60.352;15.746;2023-06-14T14:19:29;28.10;47.50
13482;DHT22;6813;60.352;15.746;2023-06-14T14:21:55;28.20;48.10
13482;DHT22;6813;60.352;15.746;2023-06-14T14:24:21;28.20;47.20
13482;DHT22;6813;60.352;15.746;2023-06-14T14:26:46;28.10;45.90
13482;DHT22;6813;60.352;15.746;2023-06-14T14:29:15;28.10;46.70
13482;DHT22;6813;60.352;15.746;2023-06-14T14:31:42;28.20;48.60
13482;DHT22;6813;60.352;15.746;2023-06-14T14:34:08;28.50;48.20
13482;DHT22;6813;60.352;15.746;2023-06-14T14:36:33;28.80;46.70
13482;DHT22;6813;60.352;15.746;2023-06-14T14:39:06;29.00;46.50
13482;DHT22;6813;60.352;15.746;2023-06-14T14:41:32;29.20;46.00
13482;DHT22;6813;60.352;15.746;2023-06-14T14:43:58;29.30;45.40
13482;DHT22;6813;60.352;15.746;2023-06-14T14:46:26;29.20;46.00
13482;DHT22;6813;60.352;15.746;2023-06-14T14:48:52;29.10;46.50
13482;DHT22;6813;60.352;15.746;2023-06-14T14:51:18;28.50;46.60
13482;DHT22;6813;60.352;15.746;2023-06-14T14:53:44;28.30;46.20
13482;DHT22;6813;60.352;15.746;2023-06-14T14:56:10;28.00;46.80
13482;DHT22;6813;60.352;15.746;2023-06-14T14:58:37;27.90;46.90
13482;DHT22;6813;60.352;15.746;2023-06-14T15:01:03;27.90;47.40
13482;DHT22;6813;60.352;15.746;2023-06-14T15:03:31;28.10;47.10
13482;DHT22;6813;60.352;15.746;2023-06-14T15:05:56;28.10;46.40
13482;DHT22;6813;60.352;15.746;2023-06-14T15:08:22;28.30;47.30
13482;DHT22;6813;60.352;15.746;2023-06-14T15:10:48;28.40;47.30
13482;DHT22;6813;60.352;15.746;2023-06-14T15:13:14;28.70;47.50
13482;DHT22;6813;60.352;15.746;2023-06-14T15:15:39;28.90;47.30
13482;DHT22;6813;60.352;15.746;2023-06-14T15:18:05;29.10;45.70
13482;DHT22;6813;60.352;15.746;2023-06-14T15:20:31;29.20;46.70
13482;DHT22;6813;60.352;15.746;2023-06-14T15:22:57;29.20;47.40
13482;DHT22;6813;60.352;15.746;2023-06-14T15:25:29;29.20;47.10
13482;DHT22;6813;60.352;15.746;2023-06-14T15:27:55;29.30;46.90
13482;DHT22;6813;60.352;15.746;2023-06-14T15:30:22;29.50;46.20
13482;DHT22;6813;60.352;15.746;2023-06-14T15:32:48;29.60;46.50
13482;DHT22;6813;60.352;15.746;2023-06-14T15:35:17;29.60;47.40
13482;DHT22;6813;60.352;15.746;2023-06-14T15:37:47;29.60;46.30
13482;DHT22;6813;60.352;15.746;2023-06-14T15:40:13;29.70;46.40
13482;DHT22;6813;60.352;15.746;2023-06-14T15:42:39;29.60;47.40
13482;DHT22;6813;60.352;15.746;2023-06-14T15:45:05;29.60;47.00